createdAt,value
2022-10-06T00:01:19.789Z,102306.91
2022-10-06T00:03:48.997Z,102305.14
2022-10-06T00:06:18.880Z,102307.76
2022-10-06T00:08:48.267Z,102302.67
2022-10-06T00:11:17.767Z,102299.88
2022-10-06T00:13:46.406Z,102297.77
2022-10-06T00:16:19.132Z,102295.67
2022-10-06T00:18:48.299Z,102290.60
2022-10-06T00:21:16.970Z,102288.16
2022-10-06T00:23:45.963Z,102285.88
2022-10-06T00:26:17.434Z,102283.39
2022-10-06T00:28:50.804Z,102284.08
2022-10-06T00:31:20.049Z,102284.58
2022-10-06T00:33:50.496Z,102283.86
2022-10-06T00:36:19.328Z,102277.73
2022-10-06T00:38:48.242Z,102276.68
2022-10-06T00:41:19.290Z,102273.35
2022-10-06T00:43:52.621Z,102271.23
2022-10-06T00:46:24.793Z,102275.75
2022-10-06T00:49:01.346Z,102275.56
2022-10-06T00:51:32.728Z,102276.41
2022-10-06T00:54:02.848Z,102276.55
2022-10-06T00:56:32.065Z,102275.15
2022-10-06T00:59:00.656Z,102273.74
2022-10-06T01:01:32.749Z,102275.98
2022-10-06T01:04:07.305Z,102278.04
2022-10-06T01:06:46.159Z,102279.95
2022-10-06T01:09:17.206Z,102281.52
2022-10-06T01:11:49.127Z,102282.38
2022-10-06T01:14:20.059Z,102282.52
2022-10-06T01:16:55.912Z,102286.02
2022-10-06T01:19:47.795Z,102283.02
2022-10-06T01:22:20.376Z,102280.39
2022-10-06T01:24:51.080Z,102278.62
2022-10-06T01:27:21.130Z,102277.58
2022-10-06T01:29:54.103Z,102280.36
2022-10-06T01:32:25.838Z,102279.30
2022-10-06T01:34:54.966Z,102278.25
2022-10-06T01:37:23.859Z,102279.27
2022-10-06T01:39:54.389Z,102280.65
2022-10-06T01:42:25.848Z,102279.39
2022-10-06T01:44:54.429Z,102280.04
2022-10-06T01:47:22.802Z,102278.64
2022-10-06T01:49:51.505Z,102279.02
2022-10-06T01:52:21.303Z,102281.45
2022-10-06T01:54:49.787Z,102281.77
2022-10-06T01:57:18.682Z,102281.59
2022-10-06T01:59:52.679Z,102280.02
2022-10-06T02:02:23.729Z,102285.25
2022-10-06T02:04:52.825Z,102289.58
2022-10-06T02:07:21.509Z,102288.35
2022-10-06T02:09:50.404Z,102283.63
2022-10-06T02:12:18.986Z,102282.59
2022-10-06T02:14:47.570Z,102279.63
2022-10-06T02:17:16.050Z,102274.56
2022-10-06T02:19:45.790Z,102279.79
2022-10-06T02:22:14.554Z,102284.33
2022-10-06T02:24:43.357Z,102281.72
2022-10-06T02:27:11.822Z,102281.19
2022-10-06T02:29:40.508Z,102282.76
2022-10-06T02:32:09.402Z,102284.48
2022-10-06T02:34:38.291Z,102280.64
2022-10-06T02:37:06.979Z,102277.65
2022-10-06T02:39:36.084Z,102272.94
2022-10-06T02:42:05.689Z,102266.65
2022-10-06T02:44:34.368Z,102265.59
2022-10-06T02:47:03.779Z,102265.58
2022-10-06T02:49:32.463Z,102260.15
2022-10-06T02:52:01.147Z,102257.17
2022-10-06T02:54:29.846Z,102254.55
2022-10-06T02:56:59.851Z,102254.38
2022-10-06T02:59:28.844Z,102253.52
2022-10-06T03:01:57.621Z,102258.39
2022-10-06T03:04:26.319Z,102259.26
2022-10-06T03:06:56.503Z,102256.98
2022-10-06T03:09:27.889Z,102262.55
2022-10-06T03:11:56.912Z,102263.75
2022-10-06T03:14:36.329Z,102260.97
2022-10-06T03:17:10.238Z,102258.53
2022-10-06T03:19:43.320Z,102256.08
2022-10-06T03:22:12.219Z,102258.00
2022-10-06T03:25:01.075Z,102256.25
2022-10-06T03:27:29.658Z,102258.48
2022-10-06T03:30:01.727Z,102257.60
2022-10-06T03:32:32.761Z,102258.48
2022-10-06T03:35:01.456Z,102262.48
2022-10-06T03:37:30.443Z,102261.08
2022-10-06T03:39:59.029Z,102262.64
2022-10-06T03:42:28.227Z,102264.17
2022-10-06T03:44:56.920Z,102265.05
2022-10-06T03:47:26.423Z,102262.61
2022-10-06T03:49:54.900Z,102256.29
2022-10-06T03:52:26.137Z,102253.98
2022-10-06T03:54:55.960Z,102256.08
2022-10-06T03:57:24.750Z,102253.63
2022-10-06T03:59:53.642Z,102250.86
2022-10-06T04:02:22.280Z,102241.81
2022-10-06T04:04:51.016Z,102241.82
2022-10-06T04:07:19.699Z,102236.45
2022-10-06T04:09:48.517Z,102240.33
2022-10-06T04:12:18.198Z,102241.79
2022-10-06T04:14:47.093Z,102240.98
2022-10-06T04:17:15.577Z,102240.35
2022-10-06T04:19:44.160Z,102236.58
2022-10-06T04:22:12.964Z,102238.58
2022-10-06T04:24:41.736Z,102236.02
2022-10-06T04:27:29.470Z,102235.87
2022-10-06T04:30:08.316Z,102234.15
2022-10-06T04:32:37.182Z,102234.02
2022-10-06T04:35:06.792Z,102241.36
2022-10-06T04:37:35.593Z,102246.10
2022-10-06T04:40:05.678Z,102248.69
2022-10-06T04:42:35.518Z,102249.20
2022-10-06T04:45:08.502Z,102258.42
2022-10-06T04:47:38.312Z,102255.64
2022-10-06T04:50:07.305Z,102261.91
2022-10-06T04:52:36.404Z,102264.15
2022-10-06T04:55:06.070Z,102267.97
2022-10-06T04:57:34.905Z,102266.88
2022-10-06T05:00:22.952Z,102261.94
2022-10-06T05:02:58.078Z,102256.83
2022-10-06T05:05:26.872Z,102260.83
2022-10-06T05:07:56.685Z,102258.02
2022-10-06T05:10:26.289Z,102257.48
2022-10-06T05:12:57.443Z,102256.07
2022-10-06T05:15:28.581Z,102259.00
2022-10-06T05:17:57.651Z,102267.90
2022-10-06T05:20:26.464Z,102269.27
2022-10-06T05:22:55.457Z,102269.08
2022-10-06T05:25:25.176Z,102270.30
2022-10-06T05:27:53.752Z,102273.28
2022-10-06T05:30:22.541Z,102274.15
2022-10-06T05:32:52.558Z,102279.38
2022-10-06T05:35:21.668Z,102286.19
2022-10-06T05:37:50.344Z,102284.11
2022-10-06T05:40:19.236Z,102285.90
2022-10-06T05:42:47.818Z,102286.24
2022-10-06T05:45:16.507Z,102291.88
2022-10-06T05:47:45.290Z,102296.45
2022-10-06T05:50:13.983Z,102303.44
2022-10-06T05:52:42.889Z,102305.91
2022-10-06T05:55:11.967Z,102309.61
2022-10-06T05:57:40.859Z,102315.92
2022-10-06T06:00:10.370Z,102314.36
2022-10-06T06:02:41.672Z,102310.72
2022-10-06T06:05:11.425Z,102312.11
2022-10-06T06:07:39.903Z,102314.04
2022-10-06T06:10:09.768Z,102313.89
2022-10-06T06:12:38.301Z,102319.66
2022-10-06T06:15:35.044Z,102317.61
2022-10-06T06:18:06.409Z,102320.98
2022-10-06T06:20:35.185Z,102317.86
2022-10-06T06:23:04.079Z,102314.77
2022-10-06T06:25:32.970Z,102317.46
2022-10-06T06:28:01.776Z,102315.60
2022-10-06T06:30:30.442Z,102316.58
2022-10-06T06:33:00.589Z,102314.10
2022-10-06T06:35:30.583Z,102315.27
2022-10-06T06:37:59.987Z,102309.27
2022-10-06T06:40:29.898Z,102305.63
2022-10-06T06:42:58.589Z,102304.08
2022-10-06T06:45:41.452Z,102299.73
2022-10-06T06:48:20.846Z,102298.55
2022-10-06T06:50:57.619Z,102298.56
2022-10-06T06:53:26.338Z,102301.31
2022-10-06T06:55:58.417Z,102300.70
2022-10-06T06:58:27.692Z,102304.66
2022-10-06T07:01:14.552Z,102309.30
2022-10-06T07:03:58.086Z,102308.30
2022-10-06T07:06:31.398Z,102308.33
2022-10-06T07:09:01.842Z,102314.99
2022-10-06T07:11:37.030Z,102321.48
2022-10-06T07:14:12.948Z,102330.94
2022-10-06T07:17:03.023Z,102326.58
2022-10-06T07:19:43.590Z,102323.63
2022-10-06T07:22:36.134Z,102325.04
2022-10-06T07:25:26.975Z,102322.94
2022-10-06T07:28:07.096Z,102321.53
2022-10-06T07:30:40.841Z,102321.71
2022-10-06T07:33:19.012Z,102327.65
2022-10-06T07:35:48.415Z,102325.37
2022-10-06T07:38:24.986Z,102323.30
2022-10-06T07:43:47.558Z,102317.89
2022-10-06T07:46:19.658Z,102315.60
2022-10-06T07:49:17.792Z,102319.10
2022-10-06T07:51:46.991Z,102320.34
2022-10-06T07:54:15.779Z,102324.38
2022-10-06T07:57:03.037Z,102336.10
2022-10-06T07:59:31.584Z,102340.10
2022-10-06T08:02:00.249Z,102339.23
2022-10-06T08:04:29.060Z,102340.83
2022-10-06T08:06:58.981Z,102336.46
2022-10-06T08:09:27.577Z,102336.02
2022-10-06T08:11:56.350Z,102336.60
2022-10-06T08:14:25.245Z,102334.75
2022-10-06T08:16:53.825Z,102332.91
2022-10-06T08:19:22.514Z,102333.53
2022-10-06T08:21:50.991Z,102323.80
2022-10-06T08:24:21.008Z,102326.52
2022-10-06T08:26:49.901Z,102325.91
2022-10-06T08:29:18.690Z,102322.30
2022-10-06T08:31:47.374Z,102317.98
2022-10-06T08:34:16.167Z,102311.20
2022-10-06T08:37:02.163Z,102311.11
2022-10-06T08:39:34.148Z,102311.34
2022-10-06T08:42:03.495Z,102311.38
2022-10-06T08:44:42.553Z,102311.23
2022-10-06T08:47:14.747Z,102308.10
2022-10-06T08:49:55.623Z,102303.91
2022-10-06T08:52:51.519Z,102301.46
2022-10-06T08:55:26.391Z,102301.84
2022-10-06T08:58:14.188Z,102293.61
2022-10-06T09:00:43.196Z,102288.69
2022-10-06T09:03:24.405Z,102285.02
2022-10-06T09:06:17.259Z,102283.41
2022-10-06T09:08:53.608Z,102280.56
2022-10-06T09:11:40.285Z,102278.39
2022-10-06T09:14:33.658Z,102273.04
2022-10-06T09:17:08.396Z,102270.67
2022-10-06T09:20:03.589Z,102270.74
2022-10-06T09:22:32.787Z,102269.04
2022-10-06T09:25:20.341Z,102271.71
2022-10-06T09:27:54.260Z,102268.55
2022-10-06T09:30:24.186Z,102265.71
2022-10-06T09:33:01.141Z,102262.33
2022-10-06T09:35:32.227Z,102264.44
2022-10-06T09:38:09.111Z,102262.90
2022-10-06T09:40:49.660Z,102257.81
2022-10-06T09:43:31.514Z,102253.61
2022-10-06T09:46:22.103Z,102254.48
2022-10-06T09:49:17.925Z,102253.73
2022-10-06T09:52:15.541Z,102250.84
2022-10-06T09:54:45.158Z,102246.33
2022-10-06T09:57:22.797Z,102239.40
2022-10-06T09:59:53.702Z,102233.93
2022-10-06T10:02:37.413Z,102226.16
2022-10-06T10:05:19.200Z,102218.02
2022-10-06T10:08:01.988Z,102210.05
2022-10-06T10:10:30.976Z,102210.92
2022-10-06T10:13:00.721Z,102213.69
2022-10-06T10:15:52.623Z,102214.70
2022-10-06T10:18:26.990Z,102210.47
2022-10-06T10:21:08.836Z,102212.14
2022-10-06T10:23:43.016Z,102211.76
2022-10-06T10:26:20.890Z,102209.71
2022-10-06T10:28:55.375Z,102210.03
2022-10-06T10:31:33.783Z,102209.77
2022-10-06T10:34:24.477Z,102209.56
2022-10-06T10:37:20.211Z,102208.16
2022-10-06T10:39:54.876Z,102205.10
2022-10-06T10:42:35.250Z,102199.90
2022-10-06T10:45:11.668Z,102197.30
2022-10-06T10:47:45.069Z,102198.02
2022-10-06T10:50:38.225Z,102195.30
2022-10-06T10:53:24.326Z,102189.78
2022-10-06T10:55:54.186Z,102187.44
2022-10-06T10:58:28.565Z,102192.23
2022-10-06T11:01:05.406Z,102193.77
2022-10-06T11:03:34.219Z,102192.35
2022-10-06T11:06:38.033Z,102186.37
2022-10-06T11:09:19.635Z,102182.70
2022-10-06T11:12:03.870Z,102180.66
2022-10-06T11:14:57.589Z,102171.84
2022-10-06T11:18:01.763Z,102169.41
2022-10-06T11:20:44.400Z,102170.84
2022-10-06T11:23:25.249Z,102168.52
2022-10-06T11:25:59.784Z,102162.65
2022-10-06T11:28:56.517Z,102160.18
2022-10-06T11:31:43.407Z,102160.89
2022-10-06T11:34:13.254Z,102165.15
2022-10-06T11:37:16.462Z,102161.83
2022-10-06T11:40:22.399Z,102165.94
2022-10-06T11:42:53.959Z,102162.13
2022-10-06T11:45:48.233Z,102161.98
2022-10-06T11:48:28.330Z,102161.80
2022-10-06T11:51:17.872Z,102163.77
2022-10-06T11:53:46.759Z,102162.19
2022-10-06T11:56:16.266Z,102157.98
2022-10-06T11:58:51.210Z,102156.58
2022-10-06T12:01:32.605Z,102154.45
2022-10-06T12:04:09.338Z,102153.92
2022-10-06T12:06:45.148Z,102153.38
2022-10-06T12:09:41.037Z,102148.86
2022-10-06T12:12:18.121Z,102149.61
2022-10-06T12:18:29.424Z,102144.67
2022-10-06T12:21:11.869Z,102144.01
2022-10-06T12:24:16.974Z,102141.39
2022-10-06T12:27:10.778Z,102141.98
2022-10-06T12:30:14.453Z,102141.65
2022-10-06T12:33:12.735Z,102141.86
2022-10-06T12:35:41.421Z,102139.47
2022-10-06T12:38:56.495Z,102134.48
2022-10-06T12:41:56.211Z,102137.39
2022-10-06T12:44:38.951Z,102143.77
2022-10-06T12:47:42.067Z,102139.38
2022-10-06T12:50:13.809Z,102136.43
2022-10-06T12:53:01.509Z,102135.78
2022-10-06T12:55:47.505Z,102131.73
2022-10-06T12:58:21.443Z,102131.39
2022-10-06T13:00:50.912Z,102134.08
2022-10-06T13:03:25.419Z,102130.05
2022-10-06T13:05:57.935Z,102124.10
2022-10-06T13:08:29.586Z,102125.73
2022-10-06T13:11:21.825Z,102123.17
2022-10-06T13:13:55.957Z,102123.93
2022-10-06T13:16:34.077Z,102125.91
2022-10-06T13:19:02.621Z,102124.00
2022-10-06T13:21:31.201Z,102120.49
2022-10-06T13:24:00.202Z,102118.73
2022-10-06T13:26:31.146Z,102113.83
2022-10-06T13:29:00.647Z,102112.13
2022-10-06T13:31:33.835Z,102110.36
2022-10-06T13:34:02.324Z,102106.64
2022-10-06T13:36:34.502Z,102107.34
2022-10-06T13:39:23.706Z,102107.16
2022-10-06T13:42:05.848Z,102109.46
2022-10-06T13:44:40.430Z,102109.33
2022-10-06T13:47:17.844Z,102111.71
2022-10-06T13:50:00.753Z,102111.76
2022-10-06T13:52:36.434Z,102109.49
2022-10-06T13:55:17.124Z,102106.70
2022-10-06T13:57:49.480Z,102109.21
2022-10-06T14:00:27.078Z,102105.03
2022-10-06T14:03:08.761Z,102104.39
2022-10-06T14:05:42.168Z,102103.54
2022-10-06T14:08:10.956Z,102102.67
2022-10-06T14:11:01.350Z,102103.40
2022-10-06T14:13:39.659Z,102104.67
2022-10-06T14:16:21.033Z,102105.61
2022-10-06T14:21:34.598Z,102103.23
2022-10-06T14:24:23.764Z,102100.81
2022-10-06T14:26:55.112Z,102100.31
2022-10-06T14:29:23.813Z,102097.89
2022-10-06T14:31:53.273Z,102097.58
2022-10-06T14:34:23.015Z,102099.23
2022-10-06T14:36:52.113Z,102102.09
2022-10-06T14:39:21.515Z,102103.38
2022-10-06T14:41:50.505Z,102102.56
2022-10-06T14:44:19.300Z,102104.37
2022-10-06T14:46:49.426Z,102105.30
2022-10-06T14:49:18.618Z,102103.59
2022-10-06T14:51:47.339Z,102103.29
2022-10-06T14:54:16.208Z,102106.17
2022-10-06T14:56:44.777Z,102109.08
2022-10-06T14:59:17.379Z,102108.59
2022-10-06T15:02:34.545Z,102109.17
2022-10-06T15:05:03.366Z,102111.91
2022-10-06T15:07:50.404Z,102111.95
2022-10-06T15:10:19.083Z,102112.35
2022-10-06T15:12:47.556Z,102115.91
2022-10-06T15:15:16.955Z,102116.84
2022-10-06T15:17:46.668Z,102117.95
2022-10-06T15:20:17.605Z,102118.36
2022-10-06T15:22:46.197Z,102120.02
2022-10-06T15:25:35.067Z,102119.20
2022-10-06T15:28:23.672Z,102123.87
2022-10-06T15:30:52.451Z,102127.98
2022-10-06T15:33:20.975Z,102130.33
2022-10-06T15:36:14.343Z,102133.39
2022-10-06T15:38:43.549Z,102133.10
2022-10-06T15:41:12.369Z,102136.51
2022-10-06T15:43:57.419Z,102138.50
2022-10-06T15:46:34.734Z,102141.05
2022-10-06T15:49:06.444Z,102144.98
2022-10-06T15:51:38.650Z,102145.57
2022-10-06T15:54:07.401Z,102147.92
2022-10-06T15:56:37.842Z,102145.34
2022-10-06T15:59:07.641Z,102149.63
2022-10-06T16:01:36.221Z,102147.19
2022-10-06T16:04:12.798Z,102150.23
2022-10-06T16:06:49.209Z,102154.35
2022-10-06T16:09:21.440Z,102156.70
2022-10-06T16:11:50.744Z,102160.45
2022-10-06T16:14:19.572Z,102164.04
2022-10-06T16:16:48.892Z,102164.97
2022-10-06T16:19:19.065Z,102171.17
2022-10-06T16:21:49.565Z,102172.79
2022-10-06T16:24:20.121Z,102174.23
2022-10-06T16:26:50.029Z,102176.56
2022-10-06T16:29:20.636Z,102179.42
2022-10-06T16:31:49.519Z,102186.33
2022-10-06T16:34:19.179Z,102181.61
2022-10-06T16:36:47.639Z,102185.33
2022-10-06T16:39:18.746Z,102182.89
2022-10-06T16:41:47.879Z,102183.98
2022-10-06T16:44:17.276Z,102188.40
2022-10-06T16:46:46.221Z,102191.76
2022-10-06T16:49:14.962Z,102195.63
2022-10-06T16:51:47.710Z,102197.94
2022-10-06T16:54:21.253Z,102199.36
2022-10-06T16:56:58.641Z,102201.15
2022-10-06T16:59:27.343Z,102201.52
2022-10-06T17:01:55.915Z,102202.25
2022-10-06T17:04:25.992Z,102199.81
2022-10-06T17:06:57.100Z,102196.85
2022-10-06T17:09:28.594Z,102199.85
2022-10-06T17:12:02.125Z,102201.80
2022-10-06T17:14:32.872Z,102203.41
2022-10-06T17:17:01.967Z,102203.95
2022-10-06T17:19:31.438Z,102202.73
2022-10-06T17:22:00.380Z,102205.91
2022-10-06T17:24:31.422Z,102208.38
2022-10-06T17:27:00.999Z,102213.13
2022-10-06T17:29:29.587Z,102214.89
2022-10-06T17:32:01.403Z,102216.85
2022-10-06T17:34:32.690Z,102214.05
2022-10-06T17:37:03.067Z,102216.86
2022-10-06T17:39:32.322Z,102221.80
2022-10-06T17:42:00.905Z,102224.25
2022-10-06T17:44:31.409Z,102226.89
2022-10-06T17:47:00.820Z,102229.34
2022-10-06T17:49:33.117Z,102229.33
2022-10-06T17:52:01.898Z,102228.81
2022-10-06T17:54:34.784Z,102236.89
2022-10-06T17:57:03.532Z,102237.78
2022-10-06T17:59:32.360Z,102238.48
2022-10-06T18:02:07.478Z,102238.48
2022-10-06T18:04:36.802Z,102241.11
2022-10-06T18:07:06.507Z,102240.59
2022-10-06T18:09:35.707Z,102246.73
2022-10-06T18:12:05.313Z,102250.23
2022-10-06T18:14:34.206Z,102250.23
2022-10-06T18:17:04.246Z,102251.29
2022-10-06T18:19:36.075Z,102248.30
2022-10-06T18:22:11.964Z,102250.75
2022-10-06T18:24:41.036Z,102250.75
2022-10-06T18:27:09.728Z,102250.55
2022-10-06T18:29:39.534Z,102251.95
2022-10-06T18:33:19.344Z,102248.44
2022-10-06T18:37:46.601Z,102248.79
2022-10-06T18:40:15.762Z,102249.30
2022-10-06T18:42:44.490Z,102248.60
2022-10-06T18:45:35.523Z,102250.17
2022-10-06T18:48:27.216Z,102250.35
2022-10-06T18:51:00.529Z,102255.42
2022-10-06T18:53:33.049Z,102258.56
2022-10-06T19:04:05.890Z,102261.34
2022-10-06T19:06:36.081Z,102263.95
2022-10-06T19:09:06.611Z,102266.92
2022-10-06T19:11:42.697Z,102269.38
2022-10-06T19:14:13.764Z,102267.41
2022-10-06T19:16:43.516Z,102269.48
2022-10-06T19:19:16.697Z,102266.49
2022-10-06T19:21:51.038Z,102267.54
2022-10-06T19:24:22.157Z,102268.05
2022-10-06T19:26:52.531Z,102269.98
2022-10-06T19:29:24.230Z,102275.22
2022-10-06T19:31:56.670Z,102275.55
2022-10-06T19:34:26.393Z,102277.99
2022-10-06T19:36:55.472Z,102281.31
2022-10-06T19:39:27.783Z,102284.80
2022-10-06T19:42:15.681Z,102283.89
2022-10-06T19:44:44.691Z,102283.70
2022-10-06T19:47:15.603Z,102285.27
2022-10-06T19:49:45.325Z,102285.08
2022-10-06T19:52:14.497Z,102288.23
2022-10-06T19:54:43.248Z,102286.80
2022-10-06T19:57:12.411Z,102288.36
2022-10-06T19:59:41.096Z,102295.71
2022-10-06T20:02:11.938Z,102300.24
2022-10-06T20:04:40.781Z,102301.79
2022-10-06T20:07:09.514Z,102305.98
2022-10-06T20:09:38.196Z,102306.13
2022-10-06T20:12:06.989Z,102308.21
2022-10-06T20:14:36.492Z,102308.20
2022-10-06T20:17:05.228Z,102305.55
2022-10-06T20:19:34.680Z,102308.67
2022-10-06T20:22:03.888Z,102316.37
2022-10-06T20:24:32.569Z,102319.48
2022-10-06T20:27:01.150Z,102321.58
2022-10-06T20:29:31.887Z,102319.64
2022-10-06T20:32:00.469Z,102320.15
2022-10-06T20:34:33.175Z,102316.98
2022-10-06T20:37:04.320Z,102315.73
2022-10-06T20:39:52.958Z,102320.80
2022-10-06T20:42:22.155Z,102319.73
2022-10-06T20:44:50.940Z,102318.14
2022-10-06T20:47:19.622Z,102318.29
2022-10-06T20:49:54.201Z,102318.61
2022-10-06T20:52:24.365Z,102316.84
2022-10-06T20:54:52.955Z,102321.19
2022-10-06T20:57:21.354Z,102319.09
2022-10-06T20:59:50.076Z,102318.36
2022-10-06T21:02:19.281Z,102322.01
2022-10-06T21:04:48.125Z,102324.41
2022-10-06T21:07:18.786Z,102324.02
2022-10-06T21:09:51.989Z,102322.77
2022-10-06T21:12:21.228Z,102325.20
2022-10-06T21:14:49.968Z,102327.61
2022-10-06T21:17:19.307Z,102328.12
2022-10-06T21:19:47.908Z,102330.37
2022-10-06T21:22:16.735Z,102330.54
2022-10-06T21:24:45.276Z,102331.91
2022-10-06T21:27:13.758Z,102331.36
2022-10-06T21:29:42.955Z,102330.29
2022-10-06T21:32:11.437Z,102327.98
2022-10-06T21:34:40.449Z,102323.59
2022-10-06T21:37:09.019Z,102326.88
2022-10-06T21:39:37.841Z,102326.86
2022-10-06T21:42:06.287Z,102329.80
2022-10-06T21:44:34.680Z,102334.15
2022-10-06T21:47:03.407Z,102334.82
2022-10-06T21:49:32.139Z,102336.02
2022-10-06T21:52:05.132Z,102338.11
2022-10-06T21:54:33.615Z,102339.13
2022-10-06T21:57:02.322Z,102342.93
2022-10-06T21:59:30.687Z,102341.17
2022-10-06T22:01:59.967Z,102340.98
2022-10-06T22:04:28.561Z,102340.59
2022-10-06T22:06:57.349Z,102338.46
2022-10-06T22:09:26.240Z,102341.04
2022-10-06T22:11:54.771Z,102344.33
2022-10-06T22:14:23.409Z,102340.98
2022-10-06T22:16:52.416Z,102342.38
2022-10-06T22:19:21.502Z,102342.35
2022-10-06T22:21:50.091Z,102343.70
2022-10-06T22:24:21.388Z,102341.91
2022-10-06T22:26:50.456Z,102341.92
2022-10-06T22:29:20.655Z,102342.27
2022-10-06T22:31:49.830Z,102344.35
2022-10-06T22:34:20.958Z,102343.11
2022-10-06T22:36:49.583Z,102345.74
2022-10-06T22:39:18.266Z,102348.70
2022-10-06T22:41:46.956Z,102345.38
2022-10-06T22:44:15.537Z,102344.11
2022-10-06T22:46:44.244Z,102345.15
2022-10-06T22:49:13.019Z,102343.90
2022-10-06T22:51:41.802Z,102345.27
2022-10-06T22:54:19.511Z,102344.91
2022-10-06T22:56:48.186Z,102346.79
2022-10-06T22:59:16.979Z,102344.13
2022-10-06T23:01:45.591Z,102342.70
2022-10-06T23:04:14.654Z,102340.74
2022-10-06T23:06:43.234Z,102337.23
2022-10-06T23:09:12.040Z,102335.29
2022-10-06T23:11:40.812Z,102335.09
2022-10-06T23:14:09.503Z,102334.72
2022-10-06T23:16:38.246Z,102331.55
2022-10-06T23:19:06.977Z,102331.16
2022-10-06T23:21:37.406Z,102330.10
2022-10-06T23:24:06.815Z,102334.27
2022-10-06T23:26:35.392Z,102333.68
2022-10-06T23:29:04.590Z,102332.76
2022-10-06T23:31:33.861Z,102326.45
2022-10-06T23:34:02.579Z,102327.45
2022-10-06T23:36:31.263Z,102328.97
2022-10-06T23:39:00.818Z,102323.17
2022-10-06T23:41:29.455Z,102324.55
2022-10-06T23:43:57.938Z,102329.94
2022-10-06T23:46:26.523Z,102331.46
2022-10-06T23:48:55.241Z,102330.92
2022-10-06T23:51:23.794Z,102328.27
2022-10-06T23:53:52.685Z,102326.32
2022-10-06T23:56:22.086Z,102324.56
2022-10-06T23:58:50.778Z,102322.96
